createdAt,value
2022-10-19T00:02:26.192Z,74.80
2022-10-19T00:05:23.165Z,74.92
2022-10-19T00:08:48.480Z,75.01
2022-10-19T00:11:19.682Z,74.96
2022-10-19T00:17:43.247Z,75.24
2022-10-19T00:20:44.912Z,75.39
2022-10-19T00:23:28.600Z,75.50
2022-10-19T00:26:08.426Z,75.48
2022-10-19T00:28:49.643Z,75.63
2022-10-19T00:31:45.306Z,75.53
2022-10-19T00:34:29.418Z,75.44
2022-10-19T00:37:12.509Z,75.41
2022-10-19T00:39:53.811Z,75.47
2022-10-19T00:42:36.321Z,75.50
2022-10-19T00:45:31.830Z,75.48
2022-10-19T00:48:13.898Z,75.37
2022-10-19T00:51:01.562Z,75.30
2022-10-19T00:53:41.834Z,75.22
2022-10-19T00:56:18.074Z,75.29
2022-10-19T00:59:05.427Z,75.51
2022-10-19T01:02:13.684Z,75.56
2022-10-19T01:05:49.348Z,75.65
2022-10-19T01:08:43.710Z,75.61
2022-10-19T01:11:50.187Z,75.57
2022-10-19T01:15:08.749Z,75.57
2022-10-19T01:18:32.139Z,75.78
2022-10-19T01:22:59.954Z,75.84
2022-10-19T01:24:48.031Z,75.93
2022-10-19T01:27:34.924Z,75.91
2022-10-19T01:31:28.934Z,75.86
2022-10-19T01:35:08.590Z,76.14
2022-10-19T01:38:25.218Z,76.17
2022-10-19T01:41:16.590Z,76.32
2022-10-19T01:44:04.886Z,76.39
2022-10-19T01:47:02.558Z,76.45
2022-10-19T01:53:32.239Z,76.61
2022-10-19T01:56:21.910Z,76.68
2022-10-19T01:59:14.109Z,76.71
2022-10-19T02:01:57.171Z,76.71
2022-10-19T02:04:37.187Z,76.70
2022-10-19T02:07:27.321Z,76.64
2022-10-19T02:10:02.598Z,76.57
2022-10-19T02:12:35.330Z,76.59
2022-10-19T02:15:29.099Z,76.77
2022-10-19T02:18:27.684Z,76.74
2022-10-19T02:21:16.594Z,76.78
2022-10-19T02:24:08.644Z,76.92
2022-10-19T02:26:41.231Z,76.80
2022-10-19T02:29:32.214Z,76.73
2022-10-19T02:32:16.254Z,76.76
2022-10-19T02:35:06.877Z,76.81
2022-10-19T02:38:19.795Z,76.98
2022-10-19T02:41:49.220Z,76.87
2022-10-19T02:45:03.513Z,76.89
2022-10-19T02:48:07.353Z,76.97
2022-10-19T02:51:04.395Z,76.99
2022-10-19T02:57:26.935Z,76.96
2022-10-19T03:03:57.582Z,76.81
2022-10-19T03:06:53.891Z,76.80
2022-10-19T03:09:34.530Z,76.80
2022-10-19T03:12:08.625Z,76.70
2022-10-19T03:14:51.429Z,76.68
2022-10-19T03:19:18.259Z,76.49
2022-10-19T03:20:47.924Z,76.61
2022-10-19T03:24:03.596Z,76.64
2022-10-19T03:27:13.296Z,76.61
2022-10-19T03:34:07.307Z,76.66
2022-10-19T03:37:40.937Z,76.62
2022-10-19T03:40:38.165Z,76.72
2022-10-19T03:46:51.225Z,76.64
2022-10-19T03:51:14.185Z,76.63
2022-10-19T03:53:41.674Z,76.65
2022-10-19T03:56:53.994Z,76.70
2022-10-19T04:00:24.794Z,76.70
2022-10-19T04:03:25.360Z,76.72
2022-10-19T04:06:29.960Z,76.69
2022-10-19T04:09:45.069Z,76.62
2022-10-19T04:13:06.099Z,76.65
2022-10-19T04:16:07.280Z,76.56
2022-10-19T04:19:04.869Z,76.53
2022-10-19T04:22:05.831Z,76.48
2022-10-19T04:28:41.089Z,76.34
2022-10-19T04:31:56.976Z,76.23
2022-10-19T04:38:15.895Z,76.24
2022-10-19T04:40:54.260Z,76.17
2022-10-19T04:47:44.650Z,75.96
2022-10-19T04:51:00.153Z,75.84
2022-10-19T04:54:22.467Z,75.84
2022-10-19T04:57:55.082Z,75.74
2022-10-19T05:04:13.269Z,75.51
2022-10-19T05:07:05.944Z,75.41
2022-10-19T05:10:22.223Z,75.35
2022-10-19T05:20:18.415Z,75.20
2022-10-19T05:26:48.203Z,75.10
2022-10-19T05:30:03.374Z,75.05
2022-10-19T05:32:52.730Z,74.97
2022-10-19T05:36:41.823Z,74.81
2022-10-19T05:39:38.235Z,74.87
2022-10-19T05:42:24.144Z,74.76
2022-10-19T05:45:01.754Z,74.73
2022-10-19T05:47:35.417Z,74.59
2022-10-19T05:50:08.536Z,74.40
2022-10-19T05:52:54.711Z,74.28
2022-10-19T05:57:36.882Z,74.14
2022-10-19T05:59:15.769Z,74.20
2022-10-19T06:02:20.411Z,74.45
2022-10-19T06:05:30.222Z,74.38
2022-10-19T06:08:14.996Z,74.12
2022-10-19T06:11:47.190Z,73.95
2022-10-19T06:21:08.665Z,73.78
2022-10-19T06:24:09.046Z,73.69
2022-10-19T06:26:55.294Z,73.56
2022-10-19T06:30:19.884Z,73.40
2022-10-19T06:33:16.746Z,73.25
2022-10-19T06:36:27.355Z,73.19
2022-10-19T06:39:09.977Z,72.98
2022-10-19T06:42:13.018Z,72.87
2022-10-19T06:44:59.300Z,72.88
2022-10-19T06:47:45.182Z,73.07
2022-10-19T06:50:28.837Z,72.92
2022-10-19T06:53:39.850Z,72.69
2022-10-19T06:59:51.390Z,72.35
2022-10-19T07:02:31.210Z,72.12
2022-10-19T07:06:46.741Z,72.05
2022-10-19T07:09:10.937Z,71.82
2022-10-19T07:15:54.079Z,71.57
2022-10-19T07:20:42.693Z,71.22
2022-10-19T07:23:10.744Z,70.99
2022-10-19T07:25:40.687Z,70.94
2022-10-19T07:32:46.919Z,70.55
2022-10-19T07:36:24.009Z,70.33
2022-10-19T07:39:26.036Z,69.94
2022-10-19T07:42:51.515Z,69.67
2022-10-19T07:46:05.045Z,69.58
2022-10-19T07:49:03.595Z,69.36
2022-10-19T07:52:02.968Z,69.20
2022-10-19T07:54:38.665Z,68.99
2022-10-19T07:58:11.950Z,68.35
2022-10-19T08:01:26.536Z,67.61
2022-10-19T08:07:58.636Z,67.05
2022-10-19T08:11:42.464Z,66.66
2022-10-19T08:14:55.130Z,66.39
2022-10-19T08:45:49.969Z,65.03
2022-10-19T09:00:49.650Z,64.12
2022-10-19T09:06:06.763Z,63.83
2022-10-19T09:07:37.606Z,64.06
2022-10-19T09:11:38.432Z,63.83
2022-10-19T09:14:06.298Z,63.61
2022-10-19T09:23:36.222Z,63.92
2022-10-19T09:27:38.996Z,63.43
2022-10-19T09:34:26.172Z,62.88
2022-10-19T09:36:57.800Z,62.80
2022-10-19T09:39:55.387Z,62.91
2022-10-19T09:43:05.549Z,62.87
2022-10-19T09:46:09.633Z,62.87
2022-10-19T09:50:41.657Z,63.07
2022-10-19T09:52:02.361Z,63.16
2022-10-19T09:54:44.239Z,62.99
2022-10-19T09:57:29.121Z,62.87
2022-10-19T10:00:08.723Z,62.92
2022-10-19T10:02:48.595Z,62.70
2022-10-19T10:05:18.803Z,62.31
2022-10-19T10:07:48.708Z,62.50
2022-10-19T10:10:55.319Z,62.53
2022-10-19T10:13:51.020Z,62.63
2022-10-19T10:16:33.823Z,62.74
2022-10-19T10:19:27.266Z,63.08
2022-10-19T10:22:02.278Z,63.72
2022-10-19T10:24:53.671Z,64.75
2022-10-19T10:27:59.426Z,65.58
2022-10-19T10:30:51.797Z,66.00
2022-10-19T10:33:46.088Z,66.77
2022-10-19T10:36:32.108Z,66.86
2022-10-19T10:39:14.424Z,65.68
2022-10-19T10:41:56.342Z,64.95
2022-10-19T10:44:36.456Z,64.39
2022-10-19T10:47:21.651Z,64.02
2022-10-19T10:50:39.828Z,63.97
2022-10-19T10:53:51.108Z,63.63
2022-10-19T10:56:34.021Z,63.77
2022-10-19T10:59:26.259Z,63.97
2022-10-19T11:02:22.121Z,64.15
2022-10-19T11:05:39.887Z,64.26
2022-10-19T11:08:19.110Z,64.49
2022-10-19T11:11:00.284Z,64.32
2022-10-19T11:13:58.895Z,64.40
2022-10-19T11:16:43.667Z,64.41
2022-10-19T11:19:34.083Z,64.32
2022-10-19T11:22:34.066Z,64.57
2022-10-19T11:25:30.608Z,64.45
2022-10-19T11:28:50.084Z,64.52
2022-10-19T11:32:16.464Z,64.42
2022-10-19T11:36:02.226Z,64.41
2022-10-19T11:38:59.394Z,64.03
2022-10-19T11:42:29.194Z,63.85
2022-10-19T11:45:41.124Z,63.66
2022-10-19T11:48:43.842Z,63.62
2022-10-19T11:52:02.315Z,63.58
2022-10-19T11:54:59.858Z,63.35
2022-10-19T11:58:08.741Z,63.41
2022-10-19T12:01:05.285Z,63.27
2022-10-19T12:04:22.747Z,63.12
2022-10-19T12:07:25.156Z,62.60
2022-10-19T12:10:41.579Z,62.54
2022-10-19T12:13:42.064Z,62.47
2022-10-19T12:17:47.723Z,62.66
2022-10-19T12:28:09.278Z,62.66
2022-10-19T12:34:41.506Z,63.06
2022-10-19T12:38:05.317Z,63.21
2022-10-19T12:42:12.655Z,63.95
2022-10-19T12:45:23.216Z,64.35
2022-10-19T12:51:52.821Z,65.18
2022-10-19T12:55:29.582Z,65.72
2022-10-19T13:01:45.363Z,66.60
2022-10-19T13:04:40.516Z,66.95
2022-10-19T13:07:27.109Z,67.17
2022-10-19T13:10:11.244Z,67.49
2022-10-19T13:13:04.003Z,67.74
2022-10-19T13:16:34.534Z,67.81
2022-10-19T13:20:02.524Z,67.72
2022-10-19T13:26:46.950Z,67.74
2022-10-19T13:36:06.571Z,68.01
2022-10-19T13:38:56.349Z,67.85
2022-10-19T13:42:00.266Z,67.96
2022-10-19T13:44:42.761Z,67.81
2022-10-19T13:47:50.365Z,67.95
2022-10-19T13:50:58.498Z,68.16
2022-10-19T13:54:14.255Z,68.39
2022-10-19T13:57:18.189Z,68.52
2022-10-19T14:00:35.831Z,68.27
2022-10-19T14:03:55.257Z,68.19
2022-10-19T14:06:59.393Z,68.18
2022-10-19T14:09:48.800Z,68.14
2022-10-19T14:12:45.295Z,68.22
2022-10-19T14:15:21.467Z,68.14
2022-10-19T14:18:35.101Z,68.10
2022-10-19T14:21:34.018Z,68.38
2022-10-19T14:24:06.684Z,68.35
2022-10-19T14:26:45.172Z,68.33
2022-10-19T14:30:04.036Z,68.31
2022-10-19T14:32:41.298Z,68.30
2022-10-19T14:36:27.223Z,68.29
2022-10-19T14:38:40.654Z,68.43
2022-10-19T14:41:49.339Z,68.44
2022-10-19T14:44:49.599Z,68.32
2022-10-19T14:47:40.305Z,68.09
2022-10-19T14:50:29.017Z,68.13
2022-10-19T14:54:31.376Z,67.99
2022-10-19T14:57:11.342Z,67.69
2022-10-19T14:59:56.621Z,67.45
2022-10-19T15:02:50.093Z,67.15
2022-10-19T15:05:52.359Z,66.75
2022-10-19T15:11:37.863Z,65.95
2022-10-19T15:14:20.875Z,65.73
2022-10-19T15:17:20.804Z,65.40
2022-10-19T15:20:04.805Z,65.13
2022-10-19T15:22:41.882Z,64.85
2022-10-19T15:28:41.578Z,64.52
2022-10-19T15:31:38.845Z,64.50
2022-10-19T15:34:34.357Z,64.54
2022-10-19T15:40:38.678Z,64.36
2022-10-19T15:43:39.963Z,64.41
2022-10-19T15:47:08.580Z,64.51
2022-10-19T15:49:44.460Z,64.54
2022-10-19T15:52:30.429Z,64.54
2022-10-19T15:55:07.472Z,64.57
2022-10-19T15:59:28.729Z,64.57
2022-10-19T16:00:51.842Z,64.61
2022-10-19T16:03:23.366Z,64.64
2022-10-19T16:05:53.750Z,64.57
2022-10-19T16:08:25.337Z,64.54
2022-10-19T16:10:54.325Z,64.49
2022-10-19T16:13:23.268Z,64.43
2022-10-19T16:16:10.402Z,64.33
2022-10-19T16:18:41.332Z,64.39
2022-10-19T16:21:10.344Z,64.38
2022-10-19T16:23:42.037Z,64.36
2022-10-19T16:26:17.389Z,64.36
2022-10-19T16:29:04.583Z,64.36
2022-10-19T16:31:44.497Z,64.45
2022-10-19T16:34:22.524Z,64.50
2022-10-19T16:37:11.869Z,64.69
2022-10-19T16:40:02.233Z,64.74
2022-10-19T16:42:39.857Z,64.74
2022-10-19T16:45:11.413Z,64.68
2022-10-19T16:47:56.783Z,64.88
2022-10-19T16:50:30.766Z,64.77
2022-10-19T16:53:13.016Z,64.71
2022-10-19T16:55:56.239Z,64.71
2022-10-19T16:58:28.577Z,64.72
2022-10-19T17:01:17.684Z,64.49
2022-10-19T17:03:50.657Z,64.45
2022-10-19T17:06:20.727Z,64.36
2022-10-19T17:09:30.180Z,64.28
2022-10-19T17:11:55.289Z,64.22
2022-10-19T17:14:31.410Z,64.18
2022-10-19T17:17:13.556Z,64.17
2022-10-19T17:19:52.068Z,64.07
2022-10-19T17:22:28.578Z,64.20
2022-10-19T17:26:14.254Z,64.02
2022-10-19T17:28:51.740Z,64.06
2022-10-19T17:31:26.696Z,63.99
2022-10-19T17:34:01.819Z,63.97
2022-10-19T17:36:44.767Z,63.98
2022-10-19T17:39:29.951Z,63.98
2022-10-19T17:42:03.671Z,63.98
2022-10-19T17:44:37.815Z,63.91
2022-10-19T17:47:30.651Z,63.87
2022-10-19T17:50:00.367Z,64.02
2022-10-19T17:52:41.957Z,64.00
2022-10-19T17:55:19.010Z,64.20
2022-10-19T17:58:09.118Z,64.35
2022-10-19T18:00:44.892Z,64.47
2022-10-19T18:03:28.232Z,64.70
2022-10-19T18:06:12.176Z,64.75
2022-10-19T18:08:45.715Z,64.86
2022-10-19T18:11:32.326Z,64.98
2022-10-19T18:14:12.019Z,65.22
2022-10-19T18:16:52.216Z,65.37
2022-10-19T18:19:22.387Z,65.45
2022-10-19T18:21:57.701Z,65.49
2022-10-19T18:24:39.114Z,65.64
2022-10-19T18:27:41.188Z,65.71
2022-10-19T18:30:23.054Z,65.89
2022-10-19T18:32:56.765Z,65.96
2022-10-19T18:35:43.065Z,66.10
2022-10-19T18:38:14.563Z,66.00
2022-10-19T18:40:48.279Z,65.93
2022-10-19T18:43:25.194Z,66.18
2022-10-19T18:46:05.254Z,66.19
2022-10-19T18:51:38.337Z,66.54
2022-10-19T18:54:27.030Z,66.64
2022-10-19T18:57:06.611Z,66.90
2022-10-19T18:59:36.259Z,66.93
2022-10-19T19:02:22.266Z,66.89
2022-10-19T19:05:06.344Z,67.15
2022-10-19T19:14:40.472Z,67.76
2022-10-19T19:17:13.762Z,67.80
2022-10-19T19:20:04.873Z,67.94
2022-10-19T19:26:07.966Z,68.04
2022-10-19T19:28:56.525Z,68.24
2022-10-19T19:31:43.731Z,68.36
2022-10-19T19:34:54.562Z,68.63
2022-10-19T19:37:39.601Z,68.54
2022-10-19T19:40:31.955Z,68.62
2022-10-19T19:46:00.033Z,68.70
2022-10-19T19:51:35.574Z,68.67
2022-10-19T19:54:17.448Z,68.76
2022-10-19T19:56:55.587Z,68.72
2022-10-19T20:00:32.179Z,68.78
2022-10-19T20:03:07.719Z,68.93
2022-10-19T20:06:08.913Z,68.70
2022-10-19T20:09:25.094Z,68.92
2022-10-19T20:12:35.717Z,69.17
2022-10-19T20:18:23.982Z,69.45
2022-10-19T20:21:31.890Z,69.44
2022-10-19T20:24:23.798Z,69.32
2022-10-19T20:26:59.710Z,69.23
2022-10-19T20:29:45.005Z,69.25
2022-10-19T20:32:32.614Z,69.23
2022-10-19T20:35:43.770Z,69.35
2022-10-19T20:38:29.986Z,69.47
2022-10-19T20:41:20.727Z,69.45
2022-10-19T20:44:01.395Z,69.47
2022-10-19T20:46:49.333Z,69.50
2022-10-19T20:49:54.811Z,69.69
2022-10-19T20:52:51.575Z,69.88
2022-10-19T20:55:40.123Z,69.81
2022-10-19T20:58:42.478Z,69.70
2022-10-19T21:01:34.094Z,69.66
2022-10-19T21:04:27.945Z,69.81
2022-10-19T21:07:21.810Z,69.94
2022-10-19T21:10:17.399Z,69.88
2022-10-19T21:13:00.923Z,69.90
2022-10-19T21:15:40.856Z,69.85
2022-10-19T21:18:18.512Z,70.10
2022-10-19T21:20:54.013Z,70.02
2022-10-19T21:24:17.835Z,70.10
2022-10-19T21:27:00.148Z,70.18
2022-10-19T21:29:47.654Z,70.23
2022-10-19T21:32:37.173Z,70.07
2022-10-19T21:38:30.011Z,70.51
2022-10-19T21:41:15.597Z,70.42
2022-10-19T21:44:41.449Z,70.39
2022-10-19T21:47:29.943Z,70.56
2022-10-19T21:49:59.284Z,70.50
2022-10-19T21:52:41.878Z,70.31
2022-10-19T22:01:37.301Z,70.40
2022-10-19T22:16:31.976Z,70.75
2022-10-19T22:27:13.088Z,70.91
2022-10-19T22:30:14.885Z,71.14
2022-10-19T22:33:40.878Z,71.20
2022-10-19T23:01:12.803Z,71.20
2022-10-19T23:03:57.704Z,71.34
2022-10-19T23:06:36.218Z,71.20
2022-10-19T23:09:12.889Z,71.24
2022-10-19T23:15:52.820Z,71.11
2022-10-19T23:18:55.414Z,71.25
2022-10-19T23:21:35.223Z,71.22
2022-10-19T23:24:35.923Z,71.44
2022-10-19T23:27:43.276Z,71.50
2022-10-19T23:30:14.145Z,71.80
2022-10-19T23:36:36.269Z,71.81
2022-10-19T23:39:45.948Z,71.82
2022-10-19T23:42:25.456Z,71.62
2022-10-19T23:45:13.767Z,71.65
2022-10-19T23:47:57.189Z,71.61
2022-10-19T23:50:30.431Z,71.79
2022-10-19T23:53:25.484Z,71.63
2022-10-19T23:56:55.042Z,71.69
